sensor_id;sensor_type;location;lat;lon;timestamp;pressure;altitude;pressure_sealevel;temperature;humidity
80988;BME280;70452;39.386;-3.210;2023-06-01T00:01:31;94072.22;;;15.15;75.29
80988;BME280;70452;39.386;-3.210;2023-06-01T00:07:26;94074.06;;;15.29;74.57
80988;BME280;70452;39.386;-3.210;2023-06-01T00:10:04;94063.41;;;15.27;74.43
80988;BME280;70452;39.386;-3.210;2023-06-01T00:13:01;94069.69;;;15.28;74.54
80988;BME280;70452;39.386;-3.210;2023-06-01T00:18:46;94056.66;;;15.33;73.95
80988;BME280;70452;39.386;-3.210;2023-06-01T00:21:39;94051.81;;;15.30;74.35
80988;BME280;70452;39.386;-3.210;2023-06-01T00:27:30;94059.00;;;15.17;74.87
80988;BME280;70452;39.386;-3.210;2023-06-01T00:30:12;94045.91;;;15.14;74.52
80988;BME280;70452;39.386;-3.210;2023-06-01T00:33:02;94051.38;;;15.14;73.84
80988;BME280;70452;39.386;-3.210;2023-06-01T00:35:50;94051.25;;;15.19;73.83
80988;BME280;70452;39.386;-3.210;2023-06-01T00:38:56;94050.84;;;15.35;73.06
80988;BME280;70452;39.386;-3.210;2023-06-01T00:41:31;94050.00;;;15.26;73.83
80988;BME280;70452;39.386;-3.210;2023-06-01T00:44:28;94043.72;;;15.25;74.04
80988;BME280;70452;39.386;-3.210;2023-06-01T00:47:11;94037.59;;;15.28;73.80
80988;BME280;70452;39.386;-3.210;2023-06-01T00:49:56;94037.25;;;15.30;73.27
80988;BME280;70452;39.386;-3.210;2023-06-01T00:52:38;94035.66;;;15.29;73.07
80988;BME280;70452;39.386;-3.210;2023-06-01T00:55:15;94037.72;;;15.23;73.54
80988;BME280;70452;39.386;-3.210;2023-06-01T00:58:10;94031.75;;;15.30;72.72
80988;BME280;70452;39.386;-3.210;2023-06-01T01:01:15;94031.13;;;15.33;72.20
80988;BME280;70452;39.386;-3.210;2023-06-01T01:03:53;94030.78;;;15.26;72.52
80988;BME280;70452;39.386;-3.210;2023-06-01T01:07:15;94035.03;;;15.32;71.89
80988;BME280;70452;39.386;-3.210;2023-06-01T01:18:23;94032.16;;;15.46;71.74
80988;BME280;70452;39.386;-3.210;2023-06-01T01:21:13;94022.16;;;15.50;71.65
80988;BME280;70452;39.386;-3.210;2023-06-01T01:31:03;94022.59;;;15.43;72.03
80988;BME280;70452;39.386;-3.210;2023-06-01T01:33:49;94013.09;;;15.41;71.61
80988;BME280;70452;39.386;-3.210;2023-06-01T01:36:31;94019.38;;;15.41;71.52
80988;BME280;70452;39.386;-3.210;2023-06-01T01:39:10;94013.41;;;15.39;70.86
80988;BME280;70452;39.386;-3.210;2023-06-01T01:41:51;94017.88;;;15.35;70.77
80988;BME280;70452;39.386;-3.210;2023-06-01T01:47:54;94010.78;;;15.25;71.61
80988;BME280;70452;39.386;-3.210;2023-06-01T01:51:15;94005.59;;;15.24;71.98
80988;BME280;70452;39.386;-3.210;2023-06-01T01:54:05;94003.00;;;15.18;72.35
80988;BME280;70452;39.386;-3.210;2023-06-01T01:57:01;93997.81;;;15.17;72.80
80988;BME280;70452;39.386;-3.210;2023-06-01T01:59:43;93995.56;;;15.19;72.82
80988;BME280;70452;39.386;-3.210;2023-06-01T02:02:35;94005.72;;;15.18;72.29
80988;BME280;70452;39.386;-3.210;2023-06-01T02:05:10;93998.28;;;15.10;72.35
80988;BME280;70452;39.386;-3.210;2023-06-01T02:07:56;93998.09;;;15.07;72.71
80988;BME280;70452;39.386;-3.210;2023-06-01T02:10:37;93993.22;;;15.04;72.12
80988;BME280;70452;39.386;-3.210;2023-06-01T02:13:24;93994.38;;;15.03;72.84
80988;BME280;70452;39.386;-3.210;2023-06-01T02:16:03;94002.47;;;15.08;72.60
80988;BME280;70452;39.386;-3.210;2023-06-01T02:18:58;94005.84;;;15.05;72.45
80988;BME280;70452;39.386;-3.210;2023-06-01T02:21:35;94000.97;;;15.02;72.88
80988;BME280;70452;39.386;-3.210;2023-06-01T02:24:23;94005.34;;;15.03;72.35
80988;BME280;70452;39.386;-3.210;2023-06-01T02:30:12;93996.59;;;15.00;72.61
80988;BME280;70452;39.386;-3.210;2023-06-01T02:32:59;93992.22;;;14.91;73.07
80988;BME280;70452;39.386;-3.210;2023-06-01T02:36:06;93993.34;;;14.90;72.79
80988;BME280;70452;39.386;-3.210;2023-06-01T02:42:11;93998.31;;;14.88;73.71
80988;BME280;70452;39.386;-3.210;2023-06-01T02:44:46;93987.84;;;14.90;74.03
80988;BME280;70452;39.386;-3.210;2023-06-01T02:47:28;93985.25;;;14.85;73.52
80988;BME280;70452;39.386;-3.210;2023-06-01T02:50:17;93983.94;;;14.82;73.76
80988;BME280;70452;39.386;-3.210;2023-06-01T02:53:25;93992.31;;;14.77;73.21
80988;BME280;70452;39.386;-3.210;2023-06-01T02:56:19;93984.53;;;14.70;73.45
80988;BME280;70452;39.386;-3.210;2023-06-01T02:59:29;93981.97;;;14.74;73.73
80988;BME280;70452;39.386;-3.210;2023-06-01T03:02:10;93977.41;;;14.69;73.88
80988;BME280;70452;39.386;-3.210;2023-06-01T03:04:55;93975.59;;;14.65;74.33
80988;BME280;70452;39.386;-3.210;2023-06-01T03:07:58;93971.41;;;14.58;73.89
80988;BME280;70452;39.386;-3.210;2023-06-01T03:10:36;93969.72;;;14.57;73.99
80988;BME280;70452;39.386;-3.210;2023-06-01T03:13:16;93962.34;;;14.58;74.32
80988;BME280;70452;39.386;-3.210;2023-06-01T03:15:59;93965.69;;;14.55;74.80
80988;BME280;70452;39.386;-3.210;2023-06-01T03:19:02;93955.53;;;14.55;74.95
80988;BME280;70452;39.386;-3.210;2023-06-01T03:21:49;93966.19;;;14.57;74.72
80988;BME280;70452;39.386;-3.210;2023-06-01T03:33:38;93960.25;;;14.32;75.67
80988;BME280;70452;39.386;-3.210;2023-06-01T03:36:20;93958.31;;;14.33;75.68
80988;BME280;70452;39.386;-3.210;2023-06-01T03:38:57;93958.00;;;14.34;75.57
80988;BME280;70452;39.386;-3.210;2023-06-01T03:41:31;93956.00;;;14.26;75.58
80988;BME280;70452;39.386;-3.210;2023-06-01T03:47:21;93955.31;;;14.20;76.67
80988;BME280;70452;39.386;-3.210;2023-06-01T03:49:57;93956.91;;;14.21;76.17
80988;BME280;70452;39.386;-3.210;2023-06-01T03:52:44;93956.75;;;14.18;76.68
80988;BME280;70452;39.386;-3.210;2023-06-01T03:55:31;93955.75;;;14.14;76.61
80988;BME280;70452;39.386;-3.210;2023-06-01T03:58:24;93953.44;;;14.07;76.86
80988;BME280;70452;39.386;-3.210;2023-06-01T04:03:55;93963.41;;;14.03;76.92
80988;BME280;70452;39.386;-3.210;2023-06-01T04:06:57;93956.81;;;14.04;76.91
80988;BME280;70452;39.386;-3.210;2023-06-01T04:09:40;93960.91;;;13.93;77.27
80988;BME280;70452;39.386;-3.210;2023-06-01T04:12:27;93962.94;;;13.87;77.41
80988;BME280;70452;39.386;-3.210;2023-06-01T04:15:26;93961.03;;;13.87;77.39
80988;BME280;70452;39.386;-3.210;2023-06-01T04:18:00;93966.81;;;13.86;77.47
80988;BME280;70452;39.386;-3.210;2023-06-01T04:20:42;93963.78;;;13.87;77.53
80988;BME280;70452;39.386;-3.210;2023-06-01T04:23:44;93964.88;;;13.86;77.44
80988;BME280;70452;39.386;-3.210;2023-06-01T04:26:31;93968.25;;;13.83;77.40
80988;BME280;70452;39.386;-3.210;2023-06-01T04:29:18;93972.41;;;13.81;77.63
80988;BME280;70452;39.386;-3.210;2023-06-01T04:32:02;93964.69;;;13.83;77.36
80988;BME280;70452;39.386;-3.210;2023-06-01T04:34:49;93967.25;;;13.79;77.46
80988;BME280;70452;39.386;-3.210;2023-06-01T04:40:08;93973.22;;;13.81;77.18
80988;BME280;70452;39.386;-3.210;2023-06-01T04:43:06;93964.81;;;13.78;77.23
80988;BME280;70452;39.386;-3.210;2023-06-01T04:45:48;93972.72;;;13.79;77.38
80988;BME280;70452;39.386;-3.210;2023-06-01T04:48:43;93970.28;;;13.78;77.32
80988;BME280;70452;39.386;-3.210;2023-06-01T04:51:45;93973.34;;;13.76;77.61
80988;BME280;70452;39.386;-3.210;2023-06-01T04:54:31;93971.94;;;13.79;77.13
80988;BME280;70452;39.386;-3.210;2023-06-01T04:57:07;93977.19;;;13.75;77.44
80988;BME280;70452;39.386;-3.210;2023-06-01T04:59:48;93974.66;;;13.79;77.18
80988;BME280;70452;39.386;-3.210;2023-06-01T05:02:50;93973.84;;;13.78;77.09
80988;BME280;70452;39.386;-3.210;2023-06-01T05:05:45;93976.88;;;13.77;77.38
80988;BME280;70452;39.386;-3.210;2023-06-01T05:08:23;93980.13;;;13.79;77.11
80988;BME280;70452;39.386;-3.210;2023-06-01T05:10:59;93992.81;;;13.75;76.78
80988;BME280;70452;39.386;-3.210;2023-06-01T05:13:40;93992.91;;;13.69;76.92
80988;BME280;70452;39.386;-3.210;2023-06-01T05:16:23;93990.88;;;13.75;76.79
80988;BME280;70452;39.386;-3.210;2023-06-01T05:19:10;93990.47;;;13.82;76.58
80988;BME280;70452;39.386;-3.210;2023-06-01T05:21:58;93990.16;;;13.83;76.73
80988;BME280;70452;39.386;-3.210;2023-06-01T05:24:30;93983.69;;;13.79;76.79
80988;BME280;70452;39.386;-3.210;2023-06-01T05:27:05;93985.47;;;13.98;76.21
80988;BME280;70452;39.386;-3.210;2023-06-01T05:29:46;93984.38;;;13.85;76.66
80988;BME280;70452;39.386;-3.210;2023-06-01T05:32:21;93986.88;;;13.95;76.41
80988;BME280;70452;39.386;-3.210;2023-06-01T05:34:57;93991.16;;;13.87;76.54
80988;BME280;70452;39.386;-3.210;2023-06-01T05:37:29;93982.34;;;14.13;75.69
80988;BME280;70452;39.386;-3.210;2023-06-01T05:40:09;93990.81;;;14.71;73.54
80988;BME280;70452;39.386;-3.210;2023-06-01T05:42:46;94000.81;;;14.67;73.35
80988;BME280;70452;39.386;-3.210;2023-06-01T05:45:29;93990.63;;;14.44;74.79
80988;BME280;70452;39.386;-3.210;2023-06-01T05:48:18;93993.25;;;14.27;75.37
80988;BME280;70452;39.386;-3.210;2023-06-01T05:50:51;93991.31;;;14.28;75.25
80988;BME280;70452;39.386;-3.210;2023-06-01T05:53:25;93992.94;;;14.29;75.54
80988;BME280;70452;39.386;-3.210;2023-06-01T06:02:14;93998.06;;;14.44;74.97
80988;BME280;70452;39.386;-3.210;2023-06-01T06:04:58;93998.25;;;14.70;74.12
80988;BME280;70452;39.386;-3.210;2023-06-01T06:07:36;93992.50;;;14.80;73.63
80988;BME280;70452;39.386;-3.210;2023-06-01T06:10:30;93991.66;;;15.69;70.66
80988;BME280;70452;39.386;-3.210;2023-06-01T06:16:23;93993.59;;;16.99;65.10
80988;BME280;70452;39.386;-3.210;2023-06-01T06:22:10;93995.59;;;17.58;63.40
80988;BME280;70452;39.386;-3.210;2023-06-01T06:24:51;93992.47;;;17.00;65.12
80988;BME280;70452;39.386;-3.210;2023-06-01T06:27:54;93995.56;;;17.29;63.89
80988;BME280;70452;39.386;-3.210;2023-06-01T06:30:33;93989.13;;;17.24;64.52
80988;BME280;70452;39.386;-3.210;2023-06-01T06:33:22;93995.72;;;16.94;65.94
80988;BME280;70452;39.386;-3.210;2023-06-01T06:38:56;93997.50;;;16.90;65.19
80988;BME280;70452;39.386;-3.210;2023-06-01T06:41:54;93994.59;;;17.33;64.48
80988;BME280;70452;39.386;-3.210;2023-06-01T06:44:44;93993.19;;;17.18;64.73
80988;BME280;70452;39.386;-3.210;2023-06-01T06:47:42;93994.13;;;17.31;64.55
80988;BME280;70452;39.386;-3.210;2023-06-01T06:53:15;93999.94;;;18.40;60.39
80988;BME280;70452;39.386;-3.210;2023-06-01T06:59:15;93983.00;;;17.10;64.44
80988;BME280;70452;39.386;-3.210;2023-06-01T07:02:09;93985.81;;;17.01;66.31
80988;BME280;70452;39.386;-3.210;2023-06-01T07:04:39;93989.25;;;17.96;62.30
80988;BME280;70452;39.386;-3.210;2023-06-01T07:07:40;93999.41;;;18.26;62.29
80988;BME280;70452;39.386;-3.210;2023-06-01T07:10:32;94003.91;;;17.50;63.32
80988;BME280;70452;39.386;-3.210;2023-06-01T07:13:02;93990.25;;;18.13;62.08
80988;BME280;70452;39.386;-3.210;2023-06-01T07:15:56;93996.38;;;18.40;60.59
80988;BME280;70452;39.386;-3.210;2023-06-01T07:18:55;93997.28;;;18.65;60.26
80988;BME280;70452;39.386;-3.210;2023-06-01T07:29:55;94010.00;;;16.61;67.14
80988;BME280;70452;39.386;-3.210;2023-06-01T07:32:51;94002.91;;;16.42;67.24
80988;BME280;70452;39.386;-3.210;2023-06-01T07:41:20;94011.97;;;17.93;62.46
80988;BME280;70452;39.386;-3.210;2023-06-01T07:44:10;94025.13;;;18.72;59.20
80988;BME280;70452;39.386;-3.210;2023-06-01T07:46:56;94002.53;;;17.65;62.24
80988;BME280;70452;39.386;-3.210;2023-06-01T07:52:47;94017.03;;;19.21;57.98
80988;BME280;70452;39.386;-3.210;2023-06-01T07:55:55;94017.41;;;18.86;58.32
80988;BME280;70452;39.386;-3.210;2023-06-01T07:58:42;94011.91;;;18.65;59.42
80988;BME280;70452;39.386;-3.210;2023-06-01T08:01:38;94010.97;;;18.40;60.07
80988;BME280;70452;39.386;-3.210;2023-06-01T08:04:21;94011.47;;;18.76;58.61
80988;BME280;70452;39.386;-3.210;2023-06-01T08:07:27;94008.50;;;18.81;57.38
80988;BME280;70452;39.386;-3.210;2023-06-01T08:10:21;94009.06;;;19.07;57.76
80988;BME280;70452;39.386;-3.210;2023-06-01T08:13:12;94006.81;;;20.20;54.44
80988;BME280;70452;39.386;-3.210;2023-06-01T08:16:30;94009.38;;;19.52;55.56
80988;BME280;70452;39.386;-3.210;2023-06-01T08:19:28;94008.75;;;20.73;52.57
80988;BME280;70452;39.386;-3.210;2023-06-01T08:22:29;94008.50;;;21.06;52.09
80988;BME280;70452;39.386;-3.210;2023-06-01T08:25:32;94004.59;;;20.26;55.18
80988;BME280;70452;39.386;-3.210;2023-06-01T08:28:17;94014.34;;;19.95;56.07
80988;BME280;70452;39.386;-3.210;2023-06-01T08:31:29;94008.47;;;19.84;55.90
80988;BME280;70452;39.386;-3.210;2023-06-01T08:34:28;94008.59;;;20.41;54.27
80988;BME280;70452;39.386;-3.210;2023-06-01T08:37:00;94009.13;;;21.31;52.29
80988;BME280;70452;39.386;-3.210;2023-06-01T08:39:51;94000.41;;;21.93;50.70
80988;BME280;70452;39.386;-3.210;2023-06-01T08:42:34;94010.63;;;22.24;49.33
80988;BME280;70452;39.386;-3.210;2023-06-01T08:45:38;94007.38;;;22.38;48.13
80988;BME280;70452;39.386;-3.210;2023-06-01T08:48:19;94014.09;;;21.86;49.13
80988;BME280;70452;39.386;-3.210;2023-06-01T08:51:19;94012.25;;;22.25;48.47
80988;BME280;70452;39.386;-3.210;2023-06-01T08:53:56;94006.41;;;22.66;46.88
80988;BME280;70452;39.386;-3.210;2023-06-01T08:56:37;94015.63;;;22.35;47.27
80988;BME280;70452;39.386;-3.210;2023-06-01T08:59:15;94005.34;;;22.19;47.94
80988;BME280;70452;39.386;-3.210;2023-06-01T09:05:02;94005.97;;;22.83;46.62
80988;BME280;70452;39.386;-3.210;2023-06-01T09:07:50;93990.63;;;23.32;45.54
80988;BME280;70452;39.386;-3.210;2023-06-01T09:10:36;93993.38;;;23.75;44.98
80988;BME280;70452;39.386;-3.210;2023-06-01T09:13:09;93996.25;;;22.54;46.74
80988;BME280;70452;39.386;-3.210;2023-06-01T09:15:56;93997.16;;;23.40;45.46
80988;BME280;70452;39.386;-3.210;2023-06-01T09:18:29;93992.25;;;24.03;43.64
80988;BME280;70452;39.386;-3.210;2023-06-01T09:21:18;93984.47;;;23.89;43.87
80988;BME280;70452;39.386;-3.210;2023-06-01T09:24:23;93989.72;;;23.94;42.85
80988;BME280;70452;39.386;-3.210;2023-06-01T09:30:02;93986.19;;;23.74;43.55
80988;BME280;70452;39.386;-3.210;2023-06-01T09:33:14;93976.91;;;24.43;42.00
80988;BME280;70452;39.386;-3.210;2023-06-01T09:35:54;93977.03;;;24.80;40.63
80988;BME280;70452;39.386;-3.210;2023-06-01T09:38:30;93971.25;;;23.82;41.48
80988;BME280;70452;39.386;-3.210;2023-06-01T09:41:14;93982.63;;;22.88;43.73
80988;BME280;70452;39.386;-3.210;2023-06-01T09:43:51;93977.84;;;23.28;43.70
80988;BME280;70452;39.386;-3.210;2023-06-01T09:46:45;93972.16;;;23.67;42.61
80988;BME280;70452;39.386;-3.210;2023-06-01T09:49:33;93978.06;;;24.38;40.76
80988;BME280;70452;39.386;-3.210;2023-06-01T09:52:11;93971.00;;;24.48;40.62
80988;BME280;70452;39.386;-3.210;2023-06-01T09:54:45;93972.34;;;24.01;41.54
80988;BME280;70452;39.386;-3.210;2023-06-01T09:57:26;93970.28;;;23.98;41.58
80988;BME280;70452;39.386;-3.210;2023-06-01T10:03:07;93957.41;;;25.41;38.20
80988;BME280;70452;39.386;-3.210;2023-06-01T10:05:49;93958.09;;;25.31;38.68
80988;BME280;70452;39.386;-3.210;2023-06-01T10:11:28;93961.16;;;25.63;38.39
80988;BME280;70452;39.386;-3.210;2023-06-01T10:14:03;93952.06;;;26.18;37.19
80988;BME280;70452;39.386;-3.210;2023-06-01T10:16:35;93948.78;;;26.05;37.07
80988;BME280;70452;39.386;-3.210;2023-06-01T10:19:24;93953.16;;;25.58;37.62
80988;BME280;70452;39.386;-3.210;2023-06-01T10:22:10;93946.28;;;24.73;39.89
80988;BME280;70452;39.386;-3.210;2023-06-01T10:24:45;93949.69;;;25.27;38.98
80988;BME280;70452;39.386;-3.210;2023-06-01T10:27:38;93943.16;;;25.98;36.93
80988;BME280;70452;39.386;-3.210;2023-06-01T10:30:17;93947.63;;;26.10;36.79
80988;BME280;70452;39.386;-3.210;2023-06-01T10:32:57;93948.19;;;25.81;37.21
80988;BME280;70452;39.386;-3.210;2023-06-01T10:35:57;93943.63;;;25.59;37.25
80988;BME280;70452;39.386;-3.210;2023-06-01T10:38:39;93940.63;;;25.37;37.80
80988;BME280;70452;39.386;-3.210;2023-06-01T10:41:53;93931.78;;;25.76;37.22
80988;BME280;70452;39.386;-3.210;2023-06-01T10:52:43;93924.50;;;26.93;34.31
80988;BME280;70452;39.386;-3.210;2023-06-01T10:58:39;93910.13;;;26.99;33.73
80988;BME280;70452;39.386;-3.210;2023-06-01T11:00:53;93905.38;;;27.10;32.58
80988;BME280;70452;39.386;-3.210;2023-06-01T11:03:50;93898.69;;;27.54;31.88
80988;BME280;70452;39.386;-3.210;2023-06-01T11:06:55;93901.88;;;27.63;31.66
80988;BME280;70452;39.386;-3.210;2023-06-01T11:09:50;93900.66;;;27.57;31.79
80988;BME280;70452;39.386;-3.210;2023-06-01T11:12:27;93897.69;;;26.74;33.24
80988;BME280;70452;39.386;-3.210;2023-06-01T11:15:17;93889.97;;;26.43;33.50
80988;BME280;70452;39.386;-3.210;2023-06-01T11:17:53;93889.78;;;26.07;35.07
80988;BME280;70452;39.386;-3.210;2023-06-01T11:23:44;93881.94;;;26.30;33.64
80988;BME280;70452;39.386;-3.210;2023-06-01T11:26:22;93875.75;;;25.44;35.10
80988;BME280;70452;39.386;-3.210;2023-06-01T11:29:12;93877.34;;;25.00;35.63
80988;BME280;70452;39.386;-3.210;2023-06-01T11:31:42;93881.31;;;25.03;35.92
80988;BME280;70452;39.386;-3.210;2023-06-01T11:37:36;93870.22;;;25.06;36.06
80988;BME280;70452;39.386;-3.210;2023-06-01T11:43:38;93872.06;;;25.85;35.08
80988;BME280;70452;39.386;-3.210;2023-06-01T11:46:12;93867.78;;;25.46;34.39
80988;BME280;70452;39.386;-3.210;2023-06-01T11:49:02;93860.19;;;25.39;34.25
80988;BME280;70452;39.386;-3.210;2023-06-01T11:52:00;93862.72;;;25.59;32.71
80988;BME280;70452;39.386;-3.210;2023-06-01T11:54:48;93854.06;;;24.82;30.74
80988;BME280;70452;39.386;-3.210;2023-06-01T11:57:28;93857.00;;;24.28;31.32
80988;BME280;70452;39.386;-3.210;2023-06-01T12:00:09;93845.63;;;23.80;31.22
80988;BME280;70452;39.386;-3.210;2023-06-01T12:03:11;93850.75;;;24.05;31.55
80988;BME280;70452;39.386;-3.210;2023-06-01T12:06:00;93845.56;;;23.76;33.44
80988;BME280;70452;39.386;-3.210;2023-06-01T12:08:35;93844.06;;;24.09;32.59
80988;BME280;70452;39.386;-3.210;2023-06-01T12:11:08;93841.56;;;24.31;33.18
80988;BME280;70452;39.386;-3.210;2023-06-01T12:13:51;93840.78;;;24.68;32.79
80988;BME280;70452;39.386;-3.210;2023-06-01T12:16:25;93847.06;;;25.40;30.67
80988;BME280;70452;39.386;-3.210;2023-06-01T12:19:26;93846.66;;;25.97;29.54
80988;BME280;70452;39.386;-3.210;2023-06-01T12:22:03;93848.25;;;26.93;27.70
80988;BME280;70452;39.386;-3.210;2023-06-01T12:24:50;93833.53;;;27.68;25.80
80988;BME280;70452;39.386;-3.210;2023-06-01T12:27:45;93832.28;;;28.05;24.47
80988;BME280;70452;39.386;-3.210;2023-06-01T12:33:42;93820.34;;;28.86;24.41
80988;BME280;70452;39.386;-3.210;2023-06-01T12:36:44;93818.97;;;29.12;24.43
80988;BME280;70452;39.386;-3.210;2023-06-01T12:39:50;93813.19;;;29.37;24.63
80988;BME280;70452;39.386;-3.210;2023-06-01T12:42:40;93813.16;;;29.41;23.10
80988;BME280;70452;39.386;-3.210;2023-06-01T12:45:26;93812.03;;;28.71;24.78
80988;BME280;70452;39.386;-3.210;2023-06-01T12:48:10;93813.16;;;27.49;26.81
80988;BME280;70452;39.386;-3.210;2023-06-01T12:51:08;93813.06;;;26.63;28.73
80988;BME280;70452;39.386;-3.210;2023-06-01T12:53:51;93797.53;;;25.85;31.67
80988;BME280;70452;39.386;-3.210;2023-06-01T12:56:33;93808.44;;;26.08;32.03
80988;BME280;70452;39.386;-3.210;2023-06-01T12:59:25;93800.19;;;25.60;32.87
80988;BME280;70452;39.386;-3.210;2023-06-01T13:04:51;93806.84;;;25.44;33.33
80988;BME280;70452;39.386;-3.210;2023-06-01T13:07:37;93793.22;;;24.87;34.04
80988;BME280;70452;39.386;-3.210;2023-06-01T13:10:10;93794.50;;;24.97;34.23
80988;BME280;70452;39.386;-3.210;2023-06-01T13:12:47;93790.06;;;24.93;34.05
80988;BME280;70452;39.386;-3.210;2023-06-01T13:15:22;93788.88;;;24.90;34.11
80988;BME280;70452;39.386;-3.210;2023-06-01T13:17:57;93772.94;;;24.90;33.68
80988;BME280;70452;39.386;-3.210;2023-06-01T13:20:55;93780.91;;;24.92;33.37
80988;BME280;70452;39.386;-3.210;2023-06-01T13:23:35;93783.69;;;24.88;33.57
80988;BME280;70452;39.386;-3.210;2023-06-01T13:26:08;93772.66;;;25.03;33.26
80988;BME280;70452;39.386;-3.210;2023-06-01T13:28:45;93768.63;;;24.97;32.74
80988;BME280;70452;39.386;-3.210;2023-06-01T13:31:30;93771.72;;;24.47;33.64
80988;BME280;70452;39.386;-3.210;2023-06-01T13:34:16;93762.84;;;24.38;34.07
80988;BME280;70452;39.386;-3.210;2023-06-01T13:36:56;93774.59;;;24.20;35.57
80988;BME280;70452;39.386;-3.210;2023-06-01T13:39:38;93779.63;;;22.97;44.46
80988;BME280;70452;39.386;-3.210;2023-06-01T13:42:11;93787.63;;;21.54;52.07
80988;BME280;70452;39.386;-3.210;2023-06-01T13:44:46;93770.66;;;20.57;56.32
80988;BME280;70452;39.386;-3.210;2023-06-01T13:50:24;93765.41;;;20.68;49.71
80988;BME280;70452;39.386;-3.210;2023-06-01T13:52:56;93766.78;;;21.09;51.05
80988;BME280;70452;39.386;-3.210;2023-06-01T13:55:28;93755.03;;;21.48;48.59
80988;BME280;70452;39.386;-3.210;2023-06-01T13:58:08;93761.88;;;21.38;47.47
80988;BME280;70452;39.386;-3.210;2023-06-01T14:00:52;93768.16;;;21.51;46.77
80988;BME280;70452;39.386;-3.210;2023-06-01T14:03:27;93767.09;;;21.04;47.21
80988;BME280;70452;39.386;-3.210;2023-06-01T14:06:24;93773.66;;;21.15;48.53
80988;BME280;70452;39.386;-3.210;2023-06-01T14:09:29;93778.25;;;21.08;50.15
80988;BME280;70452;39.386;-3.210;2023-06-01T14:12:05;93777.06;;;21.09;50.72
80988;BME280;70452;39.386;-3.210;2023-06-01T14:14:40;93783.09;;;21.66;47.91
80988;BME280;70452;39.386;-3.210;2023-06-01T14:17:16;93778.00;;;21.32;49.26
80988;BME280;70452;39.386;-3.210;2023-06-01T14:19:52;93793.22;;;21.23;47.55
80988;BME280;70452;39.386;-3.210;2023-06-01T14:22:27;93785.06;;;21.30;49.99
80988;BME280;70452;39.386;-3.210;2023-06-01T14:24:53;93787.19;;;20.85;52.09
80988;BME280;70452;39.386;-3.210;2023-06-01T14:27:43;93809.84;;;21.23;49.42
80988;BME280;70452;39.386;-3.210;2023-06-01T14:30:19;93789.25;;;20.72;52.82
80988;BME280;70452;39.386;-3.210;2023-06-01T14:33:14;93799.97;;;20.90;47.53
80988;BME280;70452;39.386;-3.210;2023-06-01T14:36:07;93781.09;;;21.11;47.51
80988;BME280;70452;39.386;-3.210;2023-06-01T14:38:57;93789.69;;;20.90;47.07
80988;BME280;70452;39.386;-3.210;2023-06-01T14:41:29;93784.59;;;21.08;46.39
80988;BME280;70452;39.386;-3.210;2023-06-01T14:44:00;93805.56;;;21.09;44.23
80988;BME280;70452;39.386;-3.210;2023-06-01T14:49:44;93853.38;;;20.74;48.00
80988;BME280;70452;39.386;-3.210;2023-06-01T14:52:21;93860.47;;;20.15;50.80
80988;BME280;70452;39.386;-3.210;2023-06-01T14:55:13;93845.25;;;19.81;53.35
80988;BME280;70452;39.386;-3.210;2023-06-01T14:58:07;93875.22;;;19.54;57.60
80988;BME280;70452;39.386;-3.210;2023-06-01T15:00:57;93867.06;;;18.96;58.93
80988;BME280;70452;39.386;-3.210;2023-06-01T15:04:00;93865.53;;;18.28;61.77
80988;BME280;70452;39.386;-3.210;2023-06-01T15:07:15;93857.44;;;18.11;64.23
80988;BME280;70452;39.386;-3.210;2023-06-01T15:10:08;93859.34;;;17.98;65.34
80988;BME280;70452;39.386;-3.210;2023-06-01T15:12:39;93863.81;;;17.39;67.90
80988;BME280;70452;39.386;-3.210;2023-06-01T15:15:36;93859.34;;;17.35;65.91
80988;BME280;70452;39.386;-3.210;2023-06-01T15:18:39;93853.25;;;17.20;66.66
80988;BME280;70452;39.386;-3.210;2023-06-01T15:21:46;93859.47;;;17.09;64.35
80988;BME280;70452;39.386;-3.210;2023-06-01T15:24:20;93870.78;;;17.16;65.06
80988;BME280;70452;39.386;-3.210;2023-06-01T15:26:55;93870.16;;;17.10;67.19
80988;BME280;70452;39.386;-3.210;2023-06-01T15:29:29;93876.53;;;17.02;66.63
80988;BME280;70452;39.386;-3.210;2023-06-01T15:32:24;93876.53;;;17.02;67.88
80988;BME280;70452;39.386;-3.210;2023-06-01T15:35:17;93872.09;;;17.10;65.42
80988;BME280;70452;39.386;-3.210;2023-06-01T15:37:47;93874.38;;;17.08;68.30
80988;BME280;70452;39.386;-3.210;2023-06-01T15:40:22;93893.84;;;17.02;67.35
80988;BME280;70452;39.386;-3.210;2023-06-01T15:43:10;93881.44;;;16.79;68.47
80988;BME280;70452;39.386;-3.210;2023-06-01T15:45:56;93879.84;;;16.69;69.38
80988;BME280;70452;39.386;-3.210;2023-06-01T15:48:31;93877.97;;;16.61;69.91
80988;BME280;70452;39.386;-3.210;2023-06-01T15:51:04;93872.66;;;16.56;70.46
80988;BME280;70452;39.386;-3.210;2023-06-01T15:53:47;93862.16;;;16.49;70.96
80988;BME280;70452;39.386;-3.210;2023-06-01T15:56:36;93865.06;;;16.44;70.44
80988;BME280;70452;39.386;-3.210;2023-06-01T15:59:08;93865.22;;;16.47;69.16
80988;BME280;70452;39.386;-3.210;2023-06-01T16:02:06;93855.50;;;16.50;67.96
80988;BME280;70452;39.386;-3.210;2023-06-01T16:04:41;93862.25;;;16.61;66.29
80988;BME280;70452;39.386;-3.210;2023-06-01T16:07:28;93872.56;;;16.73;65.58
80988;BME280;70452;39.386;-3.210;2023-06-01T16:10:26;93866.72;;;16.83;66.80
80988;BME280;70452;39.386;-3.210;2023-06-01T16:13:04;93865.41;;;16.81;65.77
80988;BME280;70452;39.386;-3.210;2023-06-01T16:15:40;93863.97;;;16.83;67.41
80988;BME280;70452;39.386;-3.210;2023-06-01T16:18:14;93857.97;;;16.90;66.01
80988;BME280;70452;39.386;-3.210;2023-06-01T16:21:24;93863.63;;;16.94;65.22
80988;BME280;70452;39.386;-3.210;2023-06-01T16:23:54;93862.81;;;16.84;65.21
80988;BME280;70452;39.386;-3.210;2023-06-01T16:26:50;93865.59;;;16.76;66.10
80988;BME280;70452;39.386;-3.210;2023-06-01T16:29:32;93856.72;;;16.70;64.60
80988;BME280;70452;39.386;-3.210;2023-06-01T16:32:21;93850.94;;;16.63;67.15
80988;BME280;70452;39.386;-3.210;2023-06-01T16:35:07;93847.38;;;16.54;67.94
80988;BME280;70452;39.386;-3.210;2023-06-01T16:37:57;93845.00;;;16.43;70.40
80988;BME280;70452;39.386;-3.210;2023-06-01T16:40:46;93837.28;;;16.37;74.59
80988;BME280;70452;39.386;-3.210;2023-06-01T16:43:19;93820.13;;;16.31;70.03